Station Historical Data
Daily Summary for August 8, 2017 Units:  Both    English   Metric
« Previous Day
Next Day »
Daily Weekly Monthly Yearly Custom
  High: Low: Average:
Temperature: 77.3 °F /  25.2 °C 56.3 °F /  13.5 °C 67.1 °F /  19.5 °C
Dew Point: 63.2 °F /  17.3 °C 47.8 °F /  8.8 °C 57.7 °F /  14.3 °C
Humidity: 94% 37% 74%
Wind Speed: 16.0mph /  25.7km/h - 3mph /  4.8km/h
Wind Gust: 17.0mph /  27.4km/h - -
Wind- - West
Pressure: 30.10 in /  1019.2 hPa 29.97 in /  1014.8 hPa -
Precipitation: 0.00 in /  0 mm    
Historical Graphs
 
 
Tabular Data for August 8, 2017
Time Temperature Dew Point Pressure Wind Wind Speed Wind Gust Humidity Rainfall Rate (Hourly)
00:04 61.2 °F /  16.2 °C 57.9 °F /  14.4 °C 29.97in /  1014.8hPa Calm     89% 0.00in /  0mm
00:09 60.9 °F /  16.1 °C 57.6 °F /  14.2 °C 29.97in /  1014.8hPa Calm     89% 0.00in /  0mm
00:14 60.7 °F /  15.9 °C 57.4 °F /  14.1 °C 29.97in /  1014.8hPa Calm     89% 0.00in /  0mm
00:19 60.4 °F /  15.8 °C 57.5 °F /  14.2 °C 29.97in /  1014.8hPa Calm     90% 0.00in /  0mm
00:24 60.2 °F /  15.7 °C 57.3 °F /  14.1 °C 29.97in /  1014.8hPa Calm     90% 0.00in /  0mm
00:29 60.1 °F /  15.6 °C 57.2 °F /  14 °C 29.97in /  1014.8hPa Calm     90% 0.00in /  0mm
00:34 60.0 °F /  15.6 °C 57.1 °F /  13.9 °C 29.97in /  1014.8hPa Calm     90% 0.00in /  0mm
00:39 59.9 °F /  15.5 °C 57.0 °F /  13.9 °C 29.97in /  1014.8hPa Calm     90% 0.00in /  0mm
00:44 59.9 °F /  15.5 °C 57.3 °F /  14.1 °C 29.97in /  1014.8hPa Calm     91% 0.00in /  0mm
00:49 59.8 °F /  15.4 °C 56.9 °F /  13.8 °C 29.97in /  1014.8hPa Calm     90% 0.00in /  0mm
00:54 59.5 °F /  15.3 °C 56.6 °F /  13.7 °C 29.97in /  1014.8hPa Calm     90% 0.00in /  0mm
00:59 59.4 °F /  15.2 °C 56.8 °F /  13.8 °C 29.97in /  1014.8hPa Calm     91% 0.00in /  0mm
01:04 59.2 °F /  15.1 °C 56.6 °F /  13.7 °C 29.97in /  1014.8hPa Calm     91% 0.00in /  0mm
01:09 59.1 °F /  15.1 °C 56.5 °F /  13.6 °C 29.97in /  1014.8hPa Calm     91% 0.00in /  0mm
01:14 59.0 °F /  15 °C 56.4 °F /  13.6 °C 29.97in /  1014.8hPa Calm     91% 0.00in /  0mm
01:19 58.9 °F /  14.9 °C 56.3 °F /  13.5 °C 29.97in /  1014.8hPa Calm     91% 0.00in /  0mm
01:24 58.8 °F /  14.9 °C 56.2 °F /  13.4 °C 29.97in /  1014.8hPa Calm     91% 0.00in /  0mm
01:29 58.5 °F /  14.7 °C 55.9 °F /  13.3 °C 29.97in /  1014.8hPa Calm     91% 0.00in /  0mm
01:34 58.4 °F /  14.7 °C 55.8 °F /  13.2 °C 29.98in /  1015.1hPa Calm     91% 0.00in /  0mm
01:39 58.3 °F /  14.6 °C 55.7 °F /  13.2 °C 29.98in /  1015.1hPa Calm     91% 0.00in /  0mm
01:44 58.2 °F /  14.6 °C 55.6 °F /  13.1 °C 29.97in /  1014.8hPa Calm     91% 0.00in /  0mm
01:49 58.3 °F /  14.6 °C 55.7 °F /  13.2 °C 29.98in /  1015.1hPa Calm     91% 0.00in /  0mm
01:54 58.2 °F /  14.6 °C 55.9 °F /  13.3 °C 29.98in /  1015.1hPa Calm     92% 0.00in /  0mm
01:59 58.1 °F /  14.5 °C 55.8 °F /  13.2 °C 29.98in /  1015.1hPa Calm     92% 0.00in /  0mm
02:04 58.1 °F /  14.5 °C 55.8 °F /  13.2 °C 29.98in /  1015.1hPa Calm     92% 0.00in /  0mm
02:09 58.1 °F /  14.5 °C 55.8 °F /  13.2 °C 29.98in /  1015.1hPa Calm     92% 0.00in /  0mm
02:14 58.3 °F /  14.6 °C 56.0 °F /  13.3 °C 29.98in /  1015.1hPa Calm     92% 0.00in /  0mm
02:19 58.1 °F /  14.5 °C 55.8 °F /  13.2 °C 29.98in /  1015.1hPa Calm     92% 0.00in /  0mm
02:24 57.9 °F /  14.4 °C 55.6 °F /  13.1 °C 29.98in /  1015.1hPa Calm     92% 0.00in /  0mm
02:29 58.1 °F /  14.5 °C 55.8 °F /  13.2 °C 29.99in /  1015.5hPa Calm     92% 0.00in /  0mm
02:34 58.2 °F /  14.6 °C 55.9 °F /  13.3 °C 29.99in /  1015.5hPa Calm     92% 0.00in /  0mm
02:39 58.3 °F /  14.6 °C 56.0 °F /  13.3 °C 29.99in /  1015.5hPa Calm     92% 0.00in /  0mm
02:44 58.4 °F /  14.7 °C 56.1 °F /  13.4 °C 29.99in /  1015.5hPa Calm     92% 0.00in /  0mm
02:49 58.4 °F /  14.7 °C 56.1 °F /  13.4 °C 29.99in /  1015.5hPa Calm     92% 0.00in /  0mm
02:54 58.6 °F /  14.8 °C 56.6 °F /  13.7 °C 29.99in /  1015.5hPa Calm     93% 0.00in /  0mm
02:59 58.9 °F /  14.9 °C 56.9 °F /  13.8 °C 29.99in /  1015.5hPa Calm     93% 0.00in /  0mm
03:04 59.1 °F /  15.1 °C 57.1 °F /  13.9 °C 29.99in /  1015.5hPa Calm     93% 0.00in /  0mm
03:09 59.2 °F /  15.1 °C 57.2 °F /  14 °C 29.99in /  1015.5hPa Calm     93% 0.00in /  0mm
03:14 59.1 °F /  15.1 °C 57.1 °F /  13.9 °C 29.99in /  1015.5hPa Calm     93% 0.00in /  0mm
03:19 59.0 °F /  15 °C 56.7 °F /  13.7 °C 29.99in /  1015.5hPa Calm     92% 0.00in /  0mm
03:24 58.8 °F /  14.9 °C 56.5 °F /  13.6 °C 29.99in /  1015.5hPa Calm     92% 0.00in /  0mm
03:29 58.8 °F /  14.9 °C 56.8 °F /  13.8 °C 29.99in /  1015.5hPa Calm     93% 0.00in /  0mm
03:34 58.9 °F /  14.9 °C 56.9 °F /  13.8 °C 29.99in /  1015.5hPa Calm     93% 0.00in /  0mm
03:39 58.8 °F /  14.9 °C 56.8 °F /  13.8 °C 29.99in /  1015.5hPa Calm     93% 0.00in /  0mm
03:44 58.7 °F /  14.8 °C 56.4 °F /  13.6 °C 29.99in /  1015.5hPa Calm     92% 0.00in /  0mm
03:49 58.6 °F /  14.8 °C 56.6 °F /  13.7 °C 29.99in /  1015.5hPa Calm     93% 0.00in /  0mm
03:54 58.5 °F /  14.7 °C 56.5 °F /  13.6 °C 29.99in /  1015.5hPa Calm     93% 0.00in /  0mm
03:59 58.3 °F /  14.6 °C 56.3 °F /  13.5 °C 29.99in /  1015.5hPa Calm     93% 0.00in /  0mm
04:04 58.0 °F /  14.4 °C 55.7 °F /  13.2 °C 29.99in /  1015.5hPa Calm     92% 0.00in /  0mm
04:09 57.9 °F /  14.4 °C 55.9 °F /  13.3 °C 29.99in /  1015.5hPa Calm     93% 0.00in /  0mm
04:14 57.8 °F /  14.3 °C 55.8 °F /  13.2 °C 29.99in /  1015.5hPa Calm     93% 0.00in /  0mm
04:19 57.7 °F /  14.3 °C 55.7 °F /  13.2 °C 29.99in /  1015.5hPa Calm     93% 0.00in /  0mm
04:24 57.8 °F /  14.3 °C 55.8 °F /  13.2 °C 29.99in /  1015.5hPa Calm     93% 0.00in /  0mm
04:29 57.7 °F /  14.3 °C 55.7 °F /  13.2 °C 29.99in /  1015.5hPa Calm     93% 0.00in /  0mm
04:34 57.8 °F /  14.3 °C 55.8 °F /  13.2 °C 29.99in /  1015.5hPa Calm     93% 0.00in /  0mm
04:39 57.9 °F /  14.4 °C 55.9 °F /  13.3 °C 29.99in /  1015.5hPa Calm     93% 0.00in /  0mm
04:44 58.0 °F /  14.4 °C 56.0 °F /  13.3 °C 29.99in /  1015.5hPa Calm     93% 0.00in /  0mm
04:49 58.2 °F /  14.6 °C 56.2 °F /  13.4 °C 29.99in /  1015.5hPa Calm     93% 0.00in /  0mm
04:54 58.4 °F /  14.7 °C 56.4 °F /  13.6 °C 29.99in /  1015.5hPa Calm     93% 0.00in /  0mm
04:59 58.4 °F /  14.7 °C 56.4 °F /  13.6 °C 29.99in /  1015.5hPa Calm     93% 0.00in /  0mm
05:04 58.3 °F /  14.6 °C 56.3 °F /  13.5 °C 29.99in /  1015.5hPa Calm     93% 0.00in /  0mm
05:09 58.2 °F /  14.6 °C 56.2 °F /  13.4 °C 29.99in /  1015.5hPa Calm     93% 0.00in /  0mm
05:14 58.1 °F /  14.5 °C 56.1 °F /  13.4 °C 29.99in /  1015.5hPa Calm     93% 0.00in /  0mm
05:19 58.0 °F /  14.4 °C 56.0 °F /  13.3 °C 29.99in /  1015.5hPa Calm     93% 0.00in /  0mm
05:24 57.7 °F /  14.3 °C 55.7 °F /  13.2 °C 29.99in /  1015.5hPa Calm     93% 0.00in /  0mm
05:29 57.5 °F /  14.2 °C 55.5 °F /  13.1 °C 29.99in /  1015.5hPa Calm     93% 0.00in /  0mm
05:34 57.5 °F /  14.2 °C 55.5 °F /  13.1 °C 29.99in /  1015.5hPa Calm     93% 0.00in /  0mm
05:39 57.3 °F /  14.1 °C 55.3 °F /  12.9 °C 29.99in /  1015.5hPa Calm     93% 0.00in /  0mm
05:44 57.3 °F /  14.1 °C 55.3 °F /  12.9 °C 29.99in /  1015.5hPa Calm     93% 0.00in /  0mm
05:49 57.2 °F /  14 °C 55.2 °F /  12.9 °C 29.99in /  1015.5hPa Calm     93% 0.00in /  0mm
05:54 56.9 °F /  13.8 °C 54.9 °F /  12.7 °C 29.99in /  1015.5hPa Calm     93% 0.00in /  0mm
05:59 56.9 °F /  13.8 °C 54.9 °F /  12.7 °C 29.99in /  1015.5hPa Calm     93% 0.00in /  0mm
06:04 56.9 °F /  13.8 °C 54.9 °F /  12.7 °C 29.99in /  1015.5hPa Calm     93% 0.00in /  0mm
06:09 56.7 °F /  13.7 °C 54.7 °F /  12.6 °C 30.00in /  1015.8hPa Calm     93% 0.00in /  0mm
06:14 56.4 °F /  13.6 °C 54.4 °F /  12.4 °C 30.00in /  1015.8hPa Calm     93% 0.00in /  0mm
06:19 56.3 °F /  13.5 °C 54.3 °F /  12.4 °C 30.00in /  1015.8hPa Calm     93% 0.00in /  0mm
06:24 56.3 °F /  13.5 °C 54.3 °F /  12.4 °C 30.00in /  1015.8hPa Calm     93% 0.00in /  0mm
06:29 56.3 °F /  13.5 °C 54.3 °F /  12.4 °C 30.00in /  1015.8hPa Calm     93% 0.00in /  0mm
06:34 56.3 °F /  13.5 °C 54.3 °F /  12.4 °C 30.00in /  1015.8hPa Calm     93% 0.00in /  0mm
06:39 56.5 °F /  13.6 °C 54.8 °F /  12.7 °C 30.00in /  1015.8hPa Calm     94% 0.00in /  0mm
06:44 56.8 °F /  13.8 °C 55.1 °F /  12.8 °C 30.00in /  1015.8hPa Calm     94% 0.00in /  0mm
06:49 57.0 °F /  13.9 °C 55.3 °F /  12.9 °C 30.01in /  1016.1hPa Calm     94% 0.00in /  0mm
06:54 57.1 °F /  13.9 °C 55.4 °F /  13 °C 30.01in /  1016.1hPa Calm     94% 0.00in /  0mm
06:59 57.6 °F /  14.2 °C 55.9 °F /  13.3 °C 30.01in /  1016.1hPa Calm     94% 0.00in /  0mm
07:04 58.0 °F /  14.4 °C 56.3 °F /  13.5 °C 30.01in /  1016.1hPa Calm     94% 0.00in /  0mm
07:09 58.3 °F /  14.6 °C 56.6 °F /  13.7 °C 30.01in /  1016.1hPa Calm     94% 0.00in /  0mm
07:14 58.5 °F /  14.7 °C 56.8 °F /  13.8 °C 30.01in /  1016.1hPa Calm     94% 0.00in /  0mm
07:19 58.7 °F /  14.8 °C 57.0 °F /  13.9 °C 30.02in /  1016.5hPa Calm     94% 0.00in /  0mm
07:24 59.0 °F /  15 °C 57.3 °F /  14.1 °C 30.02in /  1016.5hPa Calm     94% 0.00in /  0mm
07:29 59.6 °F /  15.3 °C 57.9 °F /  14.4 °C 30.02in /  1016.5hPa Calm     94% 0.00in /  0mm
07:34 60.2 °F /  15.7 °C 58.5 °F /  14.7 °C 30.02in /  1016.5hPa Calm     94% 0.00in /  0mm
07:39 60.5 °F /  15.8 °C 58.8 °F /  14.9 °C 30.03in /  1016.8hPa Calm     94% 0.00in /  0mm
07:44 60.5 °F /  15.8 °C 58.8 °F /  14.9 °C 30.03in /  1016.8hPa Calm     94% 0.00in /  0mm
07:49 60.6 °F /  15.9 °C 58.6 °F /  14.8 °C 30.03in /  1016.8hPa Calm     93% 0.00in /  0mm
07:54 60.8 °F /  16 °C 58.8 °F /  14.9 °C 30.03in /  1016.8hPa Calm     93% 0.00in /  0mm
07:59 61.1 °F /  16.2 °C 59.1 °F /  15.1 °C 30.03in /  1016.8hPa Calm     93% 0.00in /  0mm
08:04 61.4 °F /  16.3 °C 59.4 °F /  15.2 °C 30.03in /  1016.8hPa Calm     93% 0.00in /  0mm
08:09 62.0 °F /  16.7 °C 60.0 °F /  15.6 °C 30.03in /  1016.8hPa Calm     93% 0.00in /  0mm
08:14 62.9 °F /  17.2 °C 60.8 °F /  16 °C 30.03in /  1016.8hPa Calm     93% 0.00in /  0mm
08:19 63.2 °F /  17.3 °C 60.5 °F /  15.8 °C 30.04in /  1017.2hPa WNW 1.0mph /  1.6km/h 4.0mph /  6.4km/h 91% 0.00in /  0mm
08:24 63.5 °F /  17.5 °C 60.8 °F /  16 °C 30.04in /  1017.2hPa Calm   4.0mph /  6.4km/h 91% 0.00in /  0mm
08:29 64.0 °F /  17.8 °C 60.7 °F /  15.9 °C 30.04in /  1017.2hPa Calm   4.0mph /  6.4km/h 89% 0.00in /  0mm
08:34 64.1 °F /  17.8 °C 60.5 °F /  15.8 °C 30.03in /  1016.8hPa Calm   7.0mph /  11.3km/h 88% 0.00in /  0mm
08:39 64.5 °F /  18.1 °C 60.2 °F /  15.7 °C 30.04in /  1017.2hPa NW 5.0mph /  8km/h 6.0mph /  9.7km/h 86% 0.00in /  0mm
08:44 65.1 °F /  18.4 °C 60.5 °F /  15.8 °C 30.03in /  1016.8hPa NNW 3.0mph /  4.8km/h 8.0mph /  12.9km/h 85% 0.00in /  0mm
08:49 65.8 °F /  18.8 °C 60.5 °F /  15.8 °C 30.04in /  1017.2hPa WNW 3.0mph /  4.8km/h 5.0mph /  8km/h 83% 0.00in /  0mm
08:54 66.5 °F /  19.2 °C 60.8 °F /  16 °C 30.04in /  1017.2hPa NW 3.0mph /  4.8km/h 6.0mph /  9.7km/h 82% 0.00in /  0mm
08:59 66.5 °F /  19.2 °C 60.1 °F /  15.6 °C 30.04in /  1017.2hPa NW 3.0mph /  4.8km/h 8.0mph /  12.9km/h 80% 0.00in /  0mm
09:04 66.4 °F /  19.1 °C 59.7 °F /  15.4 °C 30.04in /  1017.2hPa NNW 3.0mph /  4.8km/h 8.0mph /  12.9km/h 79% 0.00in /  0mm
09:09 66.5 °F /  19.2 °C 60.1 °F /  15.6 °C 30.04in /  1017.2hPa NNW 3.0mph /  4.8km/h 7.0mph /  11.3km/h 80% 0.00in /  0mm
09:14 67.7 °F /  19.8 °C 60.6 °F /  15.9 °C 30.04in /  1017.2hPa NNW 2.0mph /  3.2km/h 7.0mph /  11.3km/h 78% 0.00in /  0mm
09:19 68.4 °F /  20.2 °C 60.5 °F /  15.8 °C 30.04in /  1017.2hPa NNW 2.0mph /  3.2km/h 6.0mph /  9.7km/h 76% 0.00in /  0mm
09:24 68.7 °F /  20.4 °C 60.1 °F /  15.6 °C 30.04in /  1017.2hPa NW 3.0mph /  4.8km/h 6.0mph /  9.7km/h 74% 0.00in /  0mm
09:29 68.2 °F /  20.1 °C 58.8 °F /  14.9 °C 30.05in /  1017.5hPa NNW 3.0mph /  4.8km/h 8.0mph /  12.9km/h 72% 0.00in /  0mm
09:34 68.2 °F /  20.1 °C 58.0 °F /  14.4 °C 30.05in /  1017.5hPa NNE 4.0mph /  6.4km/h 8.0mph /  12.9km/h 70% 0.00in /  0mm
09:39 68.6 °F /  20.3 °C 58.8 °F /  14.9 °C 30.05in /  1017.5hPa North 4.0mph /  6.4km/h 7.0mph /  11.3km/h 71% 0.00in /  0mm
09:44 69.2 °F /  20.7 °C 59.8 °F /  15.4 °C 30.05in /  1017.5hPa ESE 3.0mph /  4.8km/h 5.0mph /  8km/h 72% 0.00in /  0mm
09:49 69.8 °F /  21 °C 59.6 °F /  15.3 °C 30.05in /  1017.5hPa NW 1.0mph /  1.6km/h 6.0mph /  9.7km/h 70% 0.00in /  0mm
09:54 69.3 °F /  20.7 °C 59.1 °F /  15.1 °C 30.05in /  1017.5hPa NW 3.0mph /  4.8km/h 9.0mph /  14.5km/h 70% 0.00in /  0mm
09:59 68.3 °F /  20.2 °C 57.3 °F /  14.1 °C 30.05in /  1017.5hPa WNW 4.0mph /  6.4km/h 9.0mph /  14.5km/h 68% 0.00in /  0mm
10:04 68.6 °F /  20.3 °C 58.4 °F /  14.7 °C 30.05in /  1017.5hPa NW 4.0mph /  6.4km/h 7.0mph /  11.3km/h 70% 0.00in /  0mm
10:09 69.9 °F /  21.1 °C 60.8 °F /  16 °C 30.05in /  1017.5hPa NNW 1.0mph /  1.6km/h 8.0mph /  12.9km/h 73% 0.00in /  0mm
10:14 70.3 °F /  21.3 °C 58.4 °F /  14.7 °C 30.05in /  1017.5hPa North 2.0mph /  3.2km/h 5.0mph /  8km/h 66% 0.00in /  0mm
10:19 70.8 °F /  21.6 °C 58.9 °F /  14.9 °C 30.05in /  1017.5hPa NW 2.0mph /  3.2km/h 7.0mph /  11.3km/h 66% 0.00in /  0mm
10:24 70.5 °F /  21.4 °C 58.2 °F /  14.6 °C 30.05in /  1017.5hPa NNW 3.0mph /  4.8km/h 10.0mph /  16.1km/h 65% 0.00in /  0mm
10:29 70.8 °F /  21.6 °C 58.4 °F /  14.7 °C 30.05in /  1017.5hPa NNW 4.0mph /  6.4km/h 10.0mph /  16.1km/h 65% 0.00in /  0mm
10:34 70.9 °F /  21.6 °C 58.5 °F /  14.7 °C 30.05in /  1017.5hPa NW 4.0mph /  6.4km/h 10.0mph /  16.1km/h 65% 0.00in /  0mm
10:39 71.4 °F /  21.9 °C 57.7 °F /  14.3 °C 30.05in /  1017.5hPa NW 3.0mph /  4.8km/h 8.0mph /  12.9km/h 62% 0.00in /  0mm
10:44 71.3 °F /  21.8 °C 58.1 °F /  14.5 °C 30.05in /  1017.5hPa NNW 3.0mph /  4.8km/h 9.0mph /  14.5km/h 63% 0.00in /  0mm
10:49 72.2 °F /  22.3 °C 58.0 °F /  14.4 °C 30.05in /  1017.5hPa WNW 2.0mph /  3.2km/h 8.0mph /  12.9km/h 61% 0.00in /  0mm
10:54 72.7 °F /  22.6 °C 58.0 °F /  14.4 °C 30.05in /  1017.5hPa WNW 4.0mph /  6.4km/h 7.0mph /  11.3km/h 60% 0.00in /  0mm
10:59 71.4 °F /  21.9 °C 56.3 °F /  13.5 °C 30.05in /  1017.5hPa NW 3.0mph /  4.8km/h 8.0mph /  12.9km/h 59% 0.00in /  0mm
11:04 72.0 °F /  22.2 °C 56.9 °F /  13.8 °C 30.05in /  1017.5hPa NW 4.0mph /  6.4km/h 8.0mph /  12.9km/h 59% 0.00in /  0mm
11:09 71.9 °F /  22.2 °C 54.9 °F /  12.7 °C 30.05in /  1017.5hPa WNW 4.0mph /  6.4km/h 10.0mph /  16.1km/h 55% 0.00in /  0mm
11:14 71.4 °F /  21.9 °C 56.3 °F /  13.5 °C 30.05in /  1017.5hPa WNW 7.0mph /  11.3km/h 10.0mph /  16.1km/h 59% 0.00in /  0mm
11:19 72.1 °F /  22.3 °C 55.0 °F /  12.8 °C 30.05in /  1017.5hPa WNW 4.0mph /  6.4km/h 10.0mph /  16.1km/h 55% 0.00in /  0mm
11:24 72.2 °F /  22.3 °C 57.5 °F /  14.2 °C 30.06in /  1017.8hPa Calm   7.0mph /  11.3km/h 60% 0.00in /  0mm
11:29 72.8 °F /  22.7 °C 56.2 °F /  13.4 °C 30.06in /  1017.8hPa NNW 6.0mph /  9.7km/h 9.0mph /  14.5km/h 56% 0.00in /  0mm
11:34 72.0 °F /  22.2 °C 55.4 °F /  13 °C 30.06in /  1017.8hPa NNW 4.0mph /  6.4km/h 9.0mph /  14.5km/h 56% 0.00in /  0mm
11:39 72.7 °F /  22.6 °C 56.6 °F /  13.7 °C 30.06in /  1017.8hPa NNW 4.0mph /  6.4km/h 9.0mph /  14.5km/h 57% 0.00in /  0mm
11:44 71.9 °F /  22.2 °C 54.9 °F /  12.7 °C 30.05in /  1017.5hPa NNW 4.0mph /  6.4km/h 13.0mph /  20.9km/h 55% 0.00in /  0mm
11:49 72.3 °F /  22.4 °C 54.7 °F /  12.6 °C 30.06in /  1017.8hPa WNW 3.0mph /  4.8km/h 8.0mph /  12.9km/h 54% 0.00in /  0mm
11:54 72.4 °F /  22.4 °C 55.3 °F /  12.9 °C 30.06in /  1017.8hPa NW 3.0mph /  4.8km/h 7.0mph /  11.3km/h 55% 0.00in /  0mm
11:59 72.0 °F /  22.2 °C 55.4 °F /  13 °C 30.06in /  1017.8hPa Calm   8.0mph /  12.9km/h 56% 0.00in /  0mm
12:04 71.2 °F /  21.8 °C 54.2 °F /  12.3 °C 30.06in /  1017.8hPa NW 3.0mph /  4.8km/h 8.0mph /  12.9km/h 55% 0.00in /  0mm
12:09 72.6 °F /  22.6 °C 55.0 °F /  12.8 °C 30.06in /  1017.8hPa NW 4.0mph /  6.4km/h 8.0mph /  12.9km/h 54% 0.00in /  0mm
12:14 73.2 °F /  22.9 °C 54.0 °F /  12.2 °C 30.06in /  1017.8hPa NW 4.0mph /  6.4km/h 9.0mph /  14.5km/h 51% 0.00in /  0mm
12:19 73.1 °F /  22.8 °C 53.9 °F /  12.2 °C 30.06in /  1017.8hPa North 1.0mph /  1.6km/h 8.0mph /  12.9km/h 51% 0.00in /  0mm
12:24 74.1 °F /  23.4 °C 55.3 °F /  12.9 °C 30.06in /  1017.8hPa NW 3.0mph /  4.8km/h 13.0mph /  20.9km/h 52% 0.00in /  0mm
12:29 73.7 °F /  23.2 °C 52.8 °F /  11.6 °C 30.06in /  1017.8hPa West 5.0mph /  8km/h 10.0mph /  16.1km/h 48% 0.00in /  0mm
12:34 74.3 °F /  23.5 °C 53.3 °F /  11.8 °C 30.06in /  1017.8hPa WNW 4.0mph /  6.4km/h 10.0mph /  16.1km/h 48% 0.00in /  0mm
12:39 74.2 °F /  23.4 °C 56.0 °F /  13.3 °C 30.06in /  1017.8hPa WNW 4.0mph /  6.4km/h 9.0mph /  14.5km/h 53% 0.00in /  0mm
12:44 73.4 °F /  23 °C 53.6 °F /  12 °C 30.06in /  1017.8hPa NNW 3.0mph /  4.8km/h 9.0mph /  14.5km/h 50% 0.00in /  0mm
12:49 73.7 °F /  23.2 °C 55.0 °F /  12.8 °C 30.06in /  1017.8hPa NNW 3.0mph /  4.8km/h 9.0mph /  14.5km/h 52% 0.00in /  0mm
12:54 72.6 °F /  22.6 °C 53.4 °F /  11.9 °C 30.06in /  1017.8hPa NNW 3.0mph /  4.8km/h 8.0mph /  12.9km/h 51% 0.00in /  0mm
12:59 73.7 °F /  23.2 °C 54.4 °F /  12.4 °C 30.06in /  1017.8hPa NW 4.0mph /  6.4km/h 10.0mph /  16.1km/h 51% 0.00in /  0mm
13:04 74.2 °F /  23.4 °C 56.0 °F /  13.3 °C 30.06in /  1017.8hPa West 5.0mph /  8km/h 7.0mph /  11.3km/h 53% 0.00in /  0mm
13:09 74.7 °F /  23.7 °C 53.7 °F /  12.1 °C 30.06in /  1017.8hPa NNW 4.0mph /  6.4km/h 11.0mph /  17.7km/h 48% 0.00in /  0mm
13:14 74.6 °F /  23.7 °C 54.2 °F /  12.3 °C 30.06in /  1017.8hPa West 4.0mph /  6.4km/h 9.0mph /  14.5km/h 49% 0.00in /  0mm
13:19 75.0 °F /  23.9 °C 54.5 °F /  12.5 °C 30.06in /  1017.8hPa NW 5.0mph /  8km/h 8.0mph /  12.9km/h 49% 0.00in /  0mm
13:24 75.2 °F /  24 °C 53.0 °F /  11.7 °C 30.06in /  1017.8hPa WNW 4.0mph /  6.4km/h 10.0mph /  16.1km/h 46% 0.00in /  0mm
13:29 75.5 °F /  24.2 °C 53.3 °F /  11.8 °C 30.06in /  1017.8hPa WNW 4.0mph /  6.4km/h 7.0mph /  11.3km/h 46% 0.00in /  0mm
13:34 76.0 °F /  24.4 °C 52.5 °F /  11.4 °C 30.06in /  1017.8hPa WNW 3.0mph /  4.8km/h 10.0mph /  16.1km/h 44% 0.00in /  0mm
13:39 75.1 °F /  23.9 °C 53.5 °F /  11.9 °C 30.06in /  1017.8hPa WNW 4.0mph /  6.4km/h 11.0mph /  17.7km/h 47% 0.00in /  0mm
13:44 75.1 °F /  23.9 °C 52.3 °F /  11.3 °C 30.06in /  1017.8hPa NW 5.0mph /  8km/h 11.0mph /  17.7km/h 45% 0.00in /  0mm
13:54 75.4 °F /  24.1 °C 50.7 °F /  10.4 °C 30.06in /  1017.8hPa WNW 6.0mph /  9.7km/h 14.0mph /  22.5km/h 42% 0.00in /  0mm
13:59 75.2 °F /  24 °C 49.2 °F /  9.6 °C 30.06in /  1017.8hPa West 5.0mph /  8km/h 13.0mph /  20.9km/h 40% 0.00in /  0mm
14:04 75.7 °F /  24.3 °C 50.3 °F /  10.2 °C 30.06in /  1017.8hPa West 5.0mph /  8km/h 13.0mph /  20.9km/h 41% 0.00in /  0mm
14:09 75.9 °F /  24.4 °C 49.2 °F /  9.6 °C 30.07in /  1018.2hPa West 8.0mph /  12.9km/h 12.0mph /  19.3km/h 39% 0.00in /  0mm
14:14 75.9 °F /  24.4 °C 51.8 °F /  11 °C 30.07in /  1018.2hPa NW 2.0mph /  3.2km/h 10.0mph /  16.1km/h 43% 0.00in /  0mm
14:19 76.2 °F /  24.6 °C 50.8 °F /  10.4 °C 30.07in /  1018.2hPa NW 6.0mph /  9.7km/h 14.0mph /  22.5km/h 41% 0.00in /  0mm
14:24 76.1 °F /  24.5 °C 50.7 °F /  10.4 °C 30.07in /  1018.2hPa Calm   13.0mph /  20.9km/h 41% 0.00in /  0mm
14:29 76.0 °F /  24.4 °C 47.8 °F /  8.8 °C 30.07in /  1018.2hPa NNW 5.0mph /  8km/h 12.0mph /  19.3km/h 37% 0.00in /  0mm
14:34 75.6 °F /  24.2 °C 49.6 °F /  9.8 °C 30.06in /  1017.8hPa NE 6.0mph /  9.7km/h 12.0mph /  19.3km/h 40% 0.00in /  0mm
14:39 76.0 °F /  24.4 °C 51.2 °F /  10.7 °C 30.06in /  1017.8hPa NNW 5.0mph /  8km/h 12.0mph /  19.3km/h 42% 0.00in /  0mm
14:44 77.2 °F /  25.1 °C 51.0 °F /  10.6 °C 30.07in /  1018.2hPa NW 4.0mph /  6.4km/h 12.0mph /  19.3km/h 40% 0.00in /  0mm
14:49 76.9 °F /  24.9 °C 49.4 °F /  9.7 °C 30.06in /  1017.8hPa WNW 5.0mph /  8km/h 12.0mph /  19.3km/h 38% 0.00in /  0mm
14:54 76.6 °F /  24.8 °C 48.4 °F /  9.1 °C 30.06in /  1017.8hPa WNW 6.0mph /  9.7km/h 12.0mph /  19.3km/h 37% 0.00in /  0mm
14:59 77.1 °F /  25.1 °C 52.2 °F /  11.2 °C 30.06in /  1017.8hPa WNW 6.0mph /  9.7km/h 11.0mph /  17.7km/h 42% 0.00in /  0mm
15:04 77.0 °F /  25 °C 52.1 °F /  11.2 °C 30.06in /  1017.8hPa NNW 1.0mph /  1.6km/h 6.0mph /  9.7km/h 42% 0.00in /  0mm
15:09 77.3 °F /  25.2 °C 53.1 °F /  11.7 °C 30.06in /  1017.8hPa NW 4.0mph /  6.4km/h 8.0mph /  12.9km/h 43% 0.00in /  0mm
15:14 76.9 °F /  24.9 °C 53.3 °F /  11.8 °C 30.06in /  1017.8hPa NW 4.0mph /  6.4km/h 9.0mph /  14.5km/h 44% 0.00in /  0mm
15:19 76.9 °F /  24.9 °C 52.1 °F /  11.2 °C 30.06in /  1017.8hPa NNW 3.0mph /  4.8km/h 7.0mph /  11.3km/h 42% 0.00in /  0mm
15:24 77.0 °F /  25 °C 53.4 °F /  11.9 °C 30.06in /  1017.8hPa WSW 3.0mph /  4.8km/h 8.0mph /  12.9km/h 44% 0.00in /  0mm
15:29 76.6 °F /  24.8 °C 59.2 °F /  15.1 °C 30.06in /  1017.8hPa SW 10.0mph /  16.1km/h 11.0mph /  17.7km/h 55% 0.00in /  0mm
15:34 75.2 °F /  24 °C 57.4 °F /  14.1 °C 30.06in /  1017.8hPa West 6.0mph /  9.7km/h 13.0mph /  20.9km/h 54% 0.00in /  0mm
15:39 75.3 °F /  24.1 °C 59.0 °F /  15 °C 30.06in /  1017.8hPa SW 5.0mph /  8km/h 13.0mph /  20.9km/h 57% 0.00in /  0mm
15:44 75.0 °F /  23.9 °C 59.2 °F /  15.1 °C 30.06in /  1017.8hPa WSW 6.0mph /  9.7km/h 13.0mph /  20.9km/h 58% 0.00in /  0mm
15:49 75.1 °F /  23.9 °C 58.3 °F /  14.6 °C 30.06in /  1017.8hPa WSW 6.0mph /  9.7km/h 12.0mph /  19.3km/h 56% 0.00in /  0mm
15:54 75.2 °F /  24 °C 58.9 °F /  14.9 °C 30.06in /  1017.8hPa WSW 6.0mph /  9.7km/h 12.0mph /  19.3km/h 57% 0.00in /  0mm
15:59 74.4 °F /  23.6 °C 58.2 °F /  14.6 °C 30.06in /  1017.8hPa SW 16.0mph /  25.7km/h 17.0mph /  27.4km/h 57% 0.00in /  0mm
16:04 74.4 °F /  23.6 °C 59.6 °F /  15.3 °C 30.06in /  1017.8hPa SSW 2.0mph /  3.2km/h 12.0mph /  19.3km/h 60% 0.00in /  0mm
16:09 74.9 °F /  23.8 °C 58.6 °F /  14.8 °C 30.06in /  1017.8hPa West 8.0mph /  12.9km/h 12.0mph /  19.3km/h 57% 0.00in /  0mm
16:14 74.2 °F /  23.4 °C 58.5 °F /  14.7 °C 30.05in /  1017.5hPa SW 7.0mph /  11.3km/h 14.0mph /  22.5km/h 58% 0.00in /  0mm
16:19 74.3 °F /  23.5 °C 58.6 °F /  14.8 °C 30.06in /  1017.8hPa SW 7.0mph /  11.3km/h 16.0mph /  25.7km/h 58% 0.00in /  0mm
16:24 74.2 °F /  23.4 °C 58.9 °F /  14.9 °C 30.05in /  1017.5hPa SW 6.0mph /  9.7km/h 16.0mph /  25.7km/h 59% 0.00in /  0mm
16:29 74.2 °F /  23.4 °C 58.5 °F /  14.7 °C 30.05in /  1017.5hPa SW 7.0mph /  11.3km/h 15.0mph /  24.1km/h 58% 0.00in /  0mm
16:34 74.3 °F /  23.5 °C 59.0 °F /  15 °C 30.05in /  1017.5hPa SW 7.0mph /  11.3km/h 15.0mph /  24.1km/h 59% 0.00in /  0mm
16:39 74.4 °F /  23.6 °C 59.1 °F /  15.1 °C 30.05in /  1017.5hPa West 7.0mph /  11.3km/h 15.0mph /  24.1km/h 59% 0.00in /  0mm
16:44 74.3 °F /  23.5 °C 59.0 °F /  15 °C 30.05in /  1017.5hPa SW 6.0mph /  9.7km/h 13.0mph /  20.9km/h 59% 0.00in /  0mm
16:49 73.9 °F /  23.3 °C 58.7 °F /  14.8 °C 30.05in /  1017.5hPa SW 4.0mph /  6.4km/h 11.0mph /  17.7km/h 59% 0.00in /  0mm
16:54 74.0 °F /  23.3 °C 60.2 °F /  15.7 °C 30.05in /  1017.5hPa WNW 5.0mph /  8km/h 13.0mph /  20.9km/h 62% 0.00in /  0mm
16:59 74.3 °F /  23.5 °C 60.0 °F /  15.6 °C 30.05in /  1017.5hPa WSW 6.0mph /  9.7km/h 9.0mph /  14.5km/h 61% 0.00in /  0mm
17:04 74.1 °F /  23.4 °C 60.2 °F /  15.7 °C 30.05in /  1017.5hPa West 7.0mph /  11.3km/h 11.0mph /  17.7km/h 62% 0.00in /  0mm
17:09 73.9 °F /  23.3 °C 59.6 °F /  15.3 °C 30.05in /  1017.5hPa WSW 6.0mph /  9.7km/h 15.0mph /  24.1km/h 61% 0.00in /  0mm
17:14 73.2 °F /  22.9 °C 58.9 °F /  14.9 °C 30.05in /  1017.5hPa WSW 5.0mph /  8km/h 13.0mph /  20.9km/h 61% 0.00in /  0mm
17:19 73.5 °F /  23.1 °C 60.1 °F /  15.6 °C 30.05in /  1017.5hPa WSW 6.0mph /  9.7km/h 13.0mph /  20.9km/h 63% 0.00in /  0mm
17:24 73.3 °F /  22.9 °C 59.5 °F /  15.3 °C 30.05in /  1017.5hPa WSW 6.0mph /  9.7km/h 13.0mph /  20.9km/h 62% 0.00in /  0mm
17:29 73.7 °F /  23.2 °C 60.3 °F /  15.7 °C 30.05in /  1017.5hPa WSW 6.0mph /  9.7km/h 13.0mph /  20.9km/h 63% 0.00in /  0mm
17:34 73.0 °F /  22.8 °C 59.7 °F /  15.4 °C 30.05in /  1017.5hPa WSW 6.0mph /  9.7km/h 13.0mph /  20.9km/h 63% 0.00in /  0mm
17:39 73.0 °F /  22.8 °C 59.2 °F /  15.1 °C 30.05in /  1017.5hPa WSW 6.0mph /  9.7km/h 13.0mph /  20.9km/h 62% 0.00in /  0mm
17:44 72.7 °F /  22.6 °C 58.9 °F /  14.9 °C 30.05in /  1017.5hPa WSW 4.0mph /  6.4km/h 14.0mph /  22.5km/h 62% 0.00in /  0mm
17:49 72.6 °F /  22.6 °C 60.2 °F /  15.7 °C 30.05in /  1017.5hPa WSW 8.0mph /  12.9km/h 11.0mph /  17.7km/h 65% 0.00in /  0mm
17:54 72.4 °F /  22.4 °C 60.0 °F /  15.6 °C 30.05in /  1017.5hPa West 8.0mph /  12.9km/h 12.0mph /  19.3km/h 65% 0.00in /  0mm
17:59 72.4 °F /  22.4 °C 60.0 °F /  15.6 °C 30.05in /  1017.5hPa WSW 8.0mph /  12.9km/h 13.0mph /  20.9km/h 65% 0.00in /  0mm
18:04 72.2 °F /  22.3 °C 60.2 °F /  15.7 °C 30.05in /  1017.5hPa SW 8.0mph /  12.9km/h 12.0mph /  19.3km/h 66% 0.00in /  0mm
18:09 72.0 °F /  22.2 °C 60.9 °F /  16.1 °C 30.05in /  1017.5hPa WSW 12.0mph /  19.3km/h 12.0mph /  19.3km/h 68% 0.00in /  0mm
18:14 71.9 °F /  22.2 °C 60.8 °F /  16 °C 30.05in /  1017.5hPa SW 4.0mph /  6.4km/h 13.0mph /  20.9km/h 68% 0.00in /  0mm
18:19 72.0 °F /  22.2 °C 60.9 °F /  16.1 °C 30.05in /  1017.5hPa WSW 6.0mph /  9.7km/h 13.0mph /  20.9km/h 68% 0.00in /  0mm
18:24 72.0 °F /  22.2 °C 60.4 °F /  15.8 °C 30.05in /  1017.5hPa WSW 6.0mph /  9.7km/h 11.0mph /  17.7km/h 67% 0.00in /  0mm
18:29 71.6 °F /  22 °C 60.5 °F /  15.8 °C 30.05in /  1017.5hPa WSW 7.0mph /  11.3km/h 14.0mph /  22.5km/h 68% 0.00in /  0mm
18:34 71.3 °F /  21.8 °C 60.6 °F /  15.9 °C 30.05in /  1017.5hPa WSW 7.0mph /  11.3km/h 14.0mph /  22.5km/h 69% 0.00in /  0mm
18:39 71.3 °F /  21.8 °C 60.6 °F /  15.9 °C 30.05in /  1017.5hPa South 5.0mph /  8km/h 15.0mph /  24.1km/h 69% 0.00in /  0mm
18:44 71.3 °F /  21.8 °C 60.6 °F /  15.9 °C 30.05in /  1017.5hPa SW 3.0mph /  4.8km/h 13.0mph /  20.9km/h 69% 0.00in /  0mm
18:49 71.4 °F /  21.9 °C 60.3 °F /  15.7 °C 30.06in /  1017.8hPa SW 4.0mph /  6.4km/h 10.0mph /  16.1km/h 68% 0.00in /  0mm
18:54 71.1 °F /  21.7 °C 60.4 °F /  15.8 °C 30.06in /  1017.8hPa WSW 6.0mph /  9.7km/h 13.0mph /  20.9km/h 69% 0.00in /  0mm
18:59 71.0 °F /  21.7 °C 60.3 °F /  15.7 °C 30.06in /  1017.8hPa SW 5.0mph /  8km/h 12.0mph /  19.3km/h 69% 0.00in /  0mm
19:04 70.9 °F /  21.6 °C 60.6 °F /  15.9 °C 30.06in /  1017.8hPa WSW 8.0mph /  12.9km/h 11.0mph /  17.7km/h 70% 0.00in /  0mm
19:09 70.9 °F /  21.6 °C 60.6 °F /  15.9 °C 30.06in /  1017.8hPa SW 4.0mph /  6.4km/h 11.0mph /  17.7km/h 70% 0.00in /  0mm
19:14 70.9 °F /  21.6 °C 60.6 °F /  15.9 °C 30.06in /  1017.8hPa WSW 6.0mph /  9.7km/h 9.0mph /  14.5km/h 70% 0.00in /  0mm
19:19 70.6 °F /  21.4 °C 60.7 °F /  15.9 °C 30.06in /  1017.8hPa SSW 7.0mph /  11.3km/h 12.0mph /  19.3km/h 71% 0.00in /  0mm
19:24 70.6 °F /  21.4 °C 60.7 °F /  15.9 °C 30.06in /  1017.8hPa SW 6.0mph /  9.7km/h 12.0mph /  19.3km/h 71% 0.00in /  0mm
19:29 70.6 °F /  21.4 °C 60.7 °F /  15.9 °C 30.06in /  1017.8hPa WSW 6.0mph /  9.7km/h 13.0mph /  20.9km/h 71% 0.00in /  0mm
19:34 70.5 °F /  21.4 °C 60.6 °F /  15.9 °C 30.07in /  1018.2hPa WSW 6.0mph /  9.7km/h 13.0mph /  20.9km/h 71% 0.00in /  0mm
19:39 70.3 °F /  21.3 °C 60.8 °F /  16 °C 30.06in /  1017.8hPa West 5.0mph /  8km/h 12.0mph /  19.3km/h 72% 0.00in /  0mm
19:44 70.3 °F /  21.3 °C 60.4 °F /  15.8 °C 30.06in /  1017.8hPa SW 4.0mph /  6.4km/h 10.0mph /  16.1km/h 71% 0.00in /  0mm
19:49 70.1 °F /  21.2 °C 60.7 °F /  15.9 °C 30.06in /  1017.8hPa WSW 10.0mph /  16.1km/h 12.0mph /  19.3km/h 72% 0.00in /  0mm
19:54 70.1 °F /  21.2 °C 60.7 °F /  15.9 °C 30.06in /  1017.8hPa SW 6.0mph /  9.7km/h 14.0mph /  22.5km/h 72% 0.00in /  0mm
19:59 69.9 °F /  21.1 °C 60.5 °F /  15.8 °C 30.06in /  1017.8hPa WSW 7.0mph /  11.3km/h 14.0mph /  22.5km/h 72% 0.00in /  0mm
20:04 69.8 °F /  21 °C 60.8 °F /  16 °C 30.07in /  1018.2hPa WSW 6.0mph /  9.7km/h 11.0mph /  17.7km/h 73% 0.00in /  0mm
20:09 69.8 °F /  21 °C 60.8 °F /  16 °C 30.07in /  1018.2hPa WSW 5.0mph /  8km/h 11.0mph /  17.7km/h 73% 0.00in /  0mm
20:14 69.8 °F /  21 °C 60.8 °F /  16 °C 30.07in /  1018.2hPa SW 6.0mph /  9.7km/h 12.0mph /  19.3km/h 73% 0.00in /  0mm
20:19 69.7 °F /  20.9 °C 60.7 °F /  15.9 °C 30.07in /  1018.2hPa SW 11.0mph /  17.7km/h 14.0mph /  22.5km/h 73% 0.00in /  0mm
20:24 69.6 °F /  20.9 °C 60.9 °F /  16.1 °C 30.07in /  1018.2hPa WSW 6.0mph /  9.7km/h 14.0mph /  22.5km/h 74% 0.00in /  0mm
20:29 69.6 °F /  20.9 °C 60.9 °F /  16.1 °C 30.07in /  1018.2hPa WSW 4.0mph /  6.4km/h 11.0mph /  17.7km/h 74% 0.00in /  0mm
20:34 69.4 °F /  20.8 °C 60.8 °F /  16 °C 30.07in /  1018.2hPa SW 5.0mph /  8km/h 10.0mph /  16.1km/h 74% 0.00in /  0mm
20:39 69.5 °F /  20.8 °C 60.8 °F /  16 °C 30.07in /  1018.2hPa WSW 8.0mph /  12.9km/h 10.0mph /  16.1km/h 74% 0.00in /  0mm
20:44 69.5 °F /  20.8 °C 61.2 °F /  16.2 °C 30.07in /  1018.2hPa West 4.0mph /  6.4km/h 12.0mph /  19.3km/h 75% 0.00in /  0mm
20:49 69.4 °F /  20.8 °C 61.1 °F /  16.2 °C 30.07in /  1018.2hPa WSW 2.0mph /  3.2km/h 10.0mph /  16.1km/h 75% 0.00in /  0mm
20:54 69.4 °F /  20.8 °C 61.1 °F /  16.2 °C 30.07in /  1018.2hPa WSW 4.0mph /  6.4km/h 10.0mph /  16.1km/h 75% 0.00in /  0mm
20:59 69.3 °F /  20.7 °C 61.4 °F /  16.3 °C 30.08in /  1018.5hPa WSW 4.0mph /  6.4km/h 11.0mph /  17.7km/h 76% 0.00in /  0mm
21:04 69.3 °F /  20.7 °C 61.4 °F /  16.3 °C 30.08in /  1018.5hPa SW 4.0mph /  6.4km/h 11.0mph /  17.7km/h 76% 0.00in /  0mm
21:09 69.3 °F /  20.7 °C 61.4 °F /  16.3 °C 30.08in /  1018.5hPa SW 4.0mph /  6.4km/h 14.0mph /  22.5km/h 76% 0.00in /  0mm
21:14 69.2 °F /  20.7 °C 61.3 °F /  16.3 °C 30.08in /  1018.5hPa SW 4.0mph /  6.4km/h 14.0mph /  22.5km/h 76% 0.00in /  0mm
21:19 69.3 °F /  20.7 °C 61.4 °F /  16.3 °C 30.08in /  1018.5hPa SW 3.0mph /  4.8km/h 7.0mph /  11.3km/h 76% 0.00in /  0mm
21:24 69.3 °F /  20.7 °C 61.4 °F /  16.3 °C 30.08in /  1018.5hPa WSW 2.0mph /  3.2km/h 10.0mph /  16.1km/h 76% 0.00in /  0mm
21:29 69.4 °F /  20.8 °C 61.5 °F /  16.4 °C 30.08in /  1018.5hPa WSW 6.0mph /  9.7km/h 10.0mph /  16.1km/h 76% 0.00in /  0mm
21:34 69.5 °F /  20.8 °C 61.6 °F /  16.4 °C 30.08in /  1018.5hPa SW 3.0mph /  4.8km/h 9.0mph /  14.5km/h 76% 0.00in /  0mm
21:39 69.4 °F /  20.8 °C 61.5 °F /  16.4 °C 30.08in /  1018.5hPa SW 8.0mph /  12.9km/h 11.0mph /  17.7km/h 76% 0.00in /  0mm
21:44 69.4 °F /  20.8 °C 61.5 °F /  16.4 °C 30.08in /  1018.5hPa West 5.0mph /  8km/h 16.0mph /  25.7km/h 76% 0.00in /  0mm
21:49 69.5 °F /  20.8 °C 61.6 °F /  16.4 °C 30.09in /  1018.8hPa SW 3.0mph /  4.8km/h 15.0mph /  24.1km/h 76% 0.00in /  0mm
21:54 69.6 °F /  20.9 °C 62.1 °F /  16.7 °C 30.09in /  1018.8hPa West 7.0mph /  11.3km/h 10.0mph /  16.1km/h 77% 0.00in /  0mm
21:59 69.5 °F /  20.8 °C 62.0 °F /  16.7 °C 30.09in /  1018.8hPa SW 4.0mph /  6.4km/h 14.0mph /  22.5km/h 77% 0.00in /  0mm
22:04 69.5 °F /  20.8 °C 62.0 °F /  16.7 °C 30.09in /  1018.8hPa SW 5.0mph /  8km/h 14.0mph /  22.5km/h 77% 0.00in /  0mm
22:09 69.5 °F /  20.8 °C 62.3 °F /  16.8 °C 30.09in /  1018.8hPa SW 5.0mph /  8km/h 10.0mph /  16.1km/h 78% 0.00in /  0mm
22:14 69.5 °F /  20.8 °C 62.3 °F /  16.8 °C 30.09in /  1018.8hPa WSW 5.0mph /  8km/h 12.0mph /  19.3km/h 78% 0.00in /  0mm
22:19 69.6 °F /  20.9 °C 62.4 °F /  16.9 °C 30.09in /  1018.8hPa SW 5.0mph /  8km/h 12.0mph /  19.3km/h 78% 0.00in /  0mm
22:24 69.7 °F /  20.9 °C 62.9 °F /  17.2 °C 30.09in /  1018.8hPa SW 5.0mph /  8km/h 11.0mph /  17.7km/h 79% 0.00in /  0mm
22:29 69.6 °F /  20.9 °C 62.8 °F /  17.1 °C 30.09in /  1018.8hPa WSW 4.0mph /  6.4km/h 10.0mph /  16.1km/h 79% 0.00in /  0mm
22:34 69.7 °F /  20.9 °C 62.9 °F /  17.2 °C 30.09in /  1018.8hPa WSW 3.0mph /  4.8km/h 12.0mph /  19.3km/h 79% 0.00in /  0mm
22:39 69.7 °F /  20.9 °C 62.9 °F /  17.2 °C 30.09in /  1018.8hPa West 3.0mph /  4.8km/h 11.0mph /  17.7km/h 79% 0.00in /  0mm
22:44 69.7 °F /  20.9 °C 62.9 °F /  17.2 °C 30.09in /  1018.8hPa WSW 4.0mph /  6.4km/h 10.0mph /  16.1km/h 79% 0.00in /  0mm
22:49 69.7 °F /  20.9 °C 62.9 °F /  17.2 °C 30.09in /  1018.8hPa WSW 3.0mph /  4.8km/h 13.0mph /  20.9km/h 79% 0.00in /  0mm
22:54 69.7 °F /  20.9 °C 62.9 °F /  17.2 °C 30.10in /  1019.2hPa WSW 8.0mph /  12.9km/h 10.0mph /  16.1km/h 79% 0.00in /  0mm
22:59 69.7 °F /  20.9 °C 62.9 °F /  17.2 °C 30.10in /  1019.2hPa WSW 3.0mph /  4.8km/h 9.0mph /  14.5km/h 79% 0.00in /  0mm
23:04 69.7 °F /  20.9 °C 62.9 °F /  17.2 °C 30.10in /  1019.2hPa WSW 4.0mph /  6.4km/h 9.0mph /  14.5km/h 79% 0.00in /  0mm
23:15 69.5 °F /  20.8 °C 62.7 °F /  17.1 °C 30.10in /  1019.2hPa WSW 8.0mph /  12.9km/h 8.0mph /  12.9km/h 79% 0.00in /  0mm
23:24 69.5 °F /  20.8 °C 62.7 °F /  17.1 °C 30.10in /  1019.2hPa SW 5.0mph /  8km/h 11.0mph /  17.7km/h 79% 0.00in /  0mm
23:29 69.5 °F /  20.8 °C 62.7 °F /  17.1 °C 30.10in /  1019.2hPa West 4.0mph /  6.4km/h 8.0mph /  12.9km/h 79% 0.00in /  0mm
23:34 69.5 °F /  20.8 °C 63.1 °F /  17.3 °C 30.10in /  1019.2hPa SW 4.0mph /  6.4km/h 7.0mph /  11.3km/h 80% 0.00in /  0mm
23:39 69.4 °F /  20.8 °C 63.0 °F /  17.2 °C 30.10in /  1019.2hPa SW 6.0mph /  9.7km/h 7.0mph /  11.3km/h 80% 0.00in /  0mm
23:44 69.3 °F /  20.7 °C 62.9 °F /  17.2 °C 30.10in /  1019.2hPa WSW 2.0mph /  3.2km/h 6.0mph /  9.7km/h 80% 0.00in /  0mm
23:49 69.2 °F /  20.7 °C 63.1 °F /  17.3 °C 30.10in /  1019.2hPa SW 6.0mph /  9.7km/h 7.0mph /  11.3km/h 81% 0.00in /  0mm
23:54 69.3 °F /  20.7 °C 63.2 °F /  17.3 °C 30.10in /  1019.2hPa SSW 5.0mph /  8km/h 9.0mph /  14.5km/h 81% 0.00in /  0mm
23:59 69.3 °F /  20.7 °C 63.2 °F /  17.3 °C 30.10in /  1019.2hPa WSW 2.0mph /  3.2km/h 7.0mph /  11.3km/h 81% 0.00in /  0mm
Buffalo, New York, USA
Compliments of Weather Underground - 2.5 mb